CPA954 VHHH-ZSQD
Flight info
| Callsign | CPA954 |
|---|---|
| Flight time | N/A |
| Altitude | 41000 |
| Route | LEKEN V601 DOTMI/K0843S1250 A470 LJG B221 DST W117 BEGMO W13 TOGUG/K0846S1220 W13 HSN/K0837S1190 W13 PINOT/K0846S1220 B221 IDVEL IDV81A |
| Aircraft | A333/H-SDE3GHIJ2J3J5M1RVWXY/LB2D1 |
Departure
| Time | N/A |
|---|---|
| Airport | Hong Kong International Airport (VHHH) |
Arrival
| Time | 2026-04-26 05:06 |
|---|---|
| Airport | Qingdao Jiaodong International Airport (ZSQD) |
| Time | Latitude | Longitude | Altitude | Speed | Heading |
|---|---|---|---|---|---|
| 2026-04-26 02:41 | 22.69187 | 116.17488 | 41024 ft | 453 kts | 3° |
| 2026-04-26 02:41 | 22.72266 | 116.18380 | 41064 ft | 466 kts | 12° |
| 2026-04-26 02:41 | 22.74301 | 116.19316 | 41080 ft | 474 kts | 20° |
| 2026-04-26 02:42 | 22.79881 | 116.23301 | 41065 ft | 484 kts | 30° |
| 2026-04-26 02:42 | 22.85190 | 116.27739 | 41065 ft | 486 kts | 31° |
| 2026-04-26 02:43 | 22.93190 | 116.34522 | 41065 ft | 487 kts | 31° |
| 2026-04-26 02:43 | 22.98564 | 116.39000 | 41064 ft | 486 kts | 30° |
| 2026-04-26 02:44 | 23.03950 | 116.43445 | 41063 ft | 486 kts | 30° |
| 2026-04-26 02:44 | 23.09341 | 116.47893 | 41064 ft | 486 kts | 30° |
| 2026-04-26 02:45 | 23.14724 | 116.52343 | 41064 ft | 486 kts | 30° |
| 2026-04-26 02:45 | 23.20104 | 116.56801 | 41066 ft | 486 kts | 30° |
| 2026-04-26 02:46 | 23.25489 | 116.61267 | 41071 ft | 487 kts | 30° |
| 2026-04-26 02:46 | 23.30869 | 116.65735 | 41068 ft | 486 kts | 30° |
| 2026-04-26 02:47 | 23.36243 | 116.70201 | 41067 ft | 486 kts | 30° |
| 2026-04-26 02:47 | 23.41614 | 116.74669 | 41068 ft | 486 kts | 30° |
| 2026-04-26 02:48 | 23.46655 | 116.79676 | 41068 ft | 493 kts | 38° |
| 2026-04-26 02:48 | 23.51460 | 116.85039 | 41066 ft | 494 kts | 39° |
| 2026-04-26 02:49 | 23.56167 | 116.90414 | 41064 ft | 493 kts | 39° |
| 2026-04-26 02:49 | 23.60909 | 116.95830 | 41064 ft | 494 kts | 39° |
| 2026-04-26 02:50 | 23.65668 | 117.01253 | 41064 ft | 494 kts | 39° |
| 2026-04-26 02:50 | 23.70427 | 117.06674 | 41064 ft | 494 kts | 39° |
| 2026-04-26 02:51 | 23.75178 | 117.12090 | 41067 ft | 493 kts | 39° |
| 2026-04-26 02:51 | 23.80057 | 117.17262 | 41066 ft | 486 kts | 35° |
| 2026-04-26 02:52 | 23.85121 | 117.22143 | 41059 ft | 485 kts | 34° |
| 2026-04-26 02:52 | 23.90209 | 117.27013 | 41069 ft | 487 kts | 34° |
| 2026-04-26 02:53 | 23.95278 | 117.31930 | 41101 ft | 487 kts | 34° |
| 2026-04-26 02:53 | 24.00315 | 117.36861 | 41067 ft | 485 kts | 35° |
| 2026-04-26 02:54 | 24.05329 | 117.41780 | 41062 ft | 483 kts | 35° |
| 2026-04-26 02:54 | 24.10345 | 117.46695 | 41065 ft | 484 kts | 35° |
| 2026-04-26 02:55 | 24.15208 | 117.51825 | 41063 ft | 489 kts | 40° |
| 2026-04-26 02:55 | 24.19820 | 117.57254 | 41082 ft | 491 kts | 41° |
| 2026-04-26 02:56 | 24.24406 | 117.62773 | 41057 ft | 488 kts | 41° |
| 2026-04-26 02:56 | 24.28970 | 117.68279 | 41061 ft | 488 kts | 41° |
| 2026-04-26 02:57 | 24.33537 | 117.73779 | 41061 ft | 488 kts | 41° |
| 2026-04-26 02:57 | 24.38137 | 117.79316 | 41059 ft | 488 kts | 41° |
| 2026-04-26 02:58 | 24.42675 | 117.84785 | 41077 ft | 488 kts | 41° |
| 2026-04-26 02:58 | 24.47220 | 117.90272 | 41062 ft | 484 kts | 41° |
| 2026-04-26 02:59 | 24.51745 | 117.95738 | 41061 ft | 483 kts | 40° |
| 2026-04-26 02:59 | 24.56269 | 118.01204 | 41062 ft | 483 kts | 40° |
| 2026-04-26 03:00 | 24.60887 | 118.06550 | 41069 ft | 482 kts | 39° |
| 2026-04-26 03:00 | 24.65568 | 118.11826 | 41087 ft | 482 kts | 38° |
| 2026-04-26 03:01 | 24.70225 | 118.17087 | 41056 ft | 478 kts | 38° |
| 2026-04-26 03:01 | 24.74844 | 118.22336 | 41060 ft | 477 kts | 38° |
| 2026-04-26 03:02 | 24.79459 | 118.27597 | 41059 ft | 477 kts | 38° |
| 2026-04-26 03:02 | 24.84067 | 118.32859 | 41057 ft | 477 kts | 38° |
| 2026-04-26 03:03 | 24.88678 | 118.38130 | 41077 ft | 477 kts | 38° |
| 2026-04-26 03:03 | 24.93256 | 118.43373 | 41059 ft | 473 kts | 38° |
| 2026-04-26 03:04 | 24.97806 | 118.48591 | 41057 ft | 472 kts | 38° |
| 2026-04-26 03:04 | 25.02325 | 118.53772 | 41059 ft | 472 kts | 38° |
| 2026-04-26 03:05 | 25.06874 | 118.58995 | 41060 ft | 472 kts | 38° |
| 2026-04-26 03:05 | 25.11399 | 118.64260 | 41066 ft | 473 kts | 39° |
| 2026-04-26 03:06 | 25.15830 | 118.69604 | 41056 ft | 470 kts | 39° |
| 2026-04-26 03:06 | 25.20241 | 118.74960 | 41059 ft | 472 kts | 39° |
| 2026-04-26 03:07 | 25.24665 | 118.80316 | 41062 ft | 472 kts | 39° |
| 2026-04-26 03:07 | 25.29090 | 118.85672 | 41062 ft | 472 kts | 39° |
| 2026-04-26 03:08 | 25.33513 | 118.91029 | 41061 ft | 472 kts | 39° |
| 2026-04-26 03:08 | 25.37988 | 118.96329 | 41069 ft | 471 kts | 38° |
| 2026-04-26 03:09 | 25.42510 | 119.01584 | 41058 ft | 473 kts | 38° |
| 2026-04-26 03:09 | 25.47051 | 119.06866 | 41056 ft | 474 kts | 39° |
| 2026-04-26 03:10 | 25.51556 | 119.12129 | 41056 ft | 474 kts | 39° |
| 2026-04-26 03:10 | 25.56081 | 119.17432 | 41056 ft | 473 kts | 39° |
| 2026-04-26 03:11 | 25.60599 | 119.22734 | 41059 ft | 473 kts | 39° |
| 2026-04-26 03:11 | 25.65116 | 119.28037 | 41059 ft | 474 kts | 39° |
| 2026-04-26 03:12 | 25.69652 | 119.33366 | 41058 ft | 476 kts | 39° |
| 2026-04-26 03:12 | 25.74645 | 119.37972 | 41084 ft | 458 kts | 22° |
| 2026-04-26 03:13 | 25.80378 | 119.40703 | 41058 ft | 445 kts | 11° |
| 2026-04-26 03:13 | 25.86272 | 119.42768 | 41044 ft | 444 kts | 9° |
| 2026-04-26 03:14 | 25.92183 | 119.44715 | 41056 ft | 443 kts | 9° |
| 2026-04-26 03:14 | 25.98104 | 119.46685 | 41052 ft | 444 kts | 9° |
| 2026-04-26 03:15 | 26.04013 | 119.48686 | 41053 ft | 444 kts | 9° |
| 2026-04-26 03:15 | 26.09921 | 119.50702 | 41052 ft | 444 kts | 9° |
| 2026-04-26 03:16 | 26.15827 | 119.52720 | 41050 ft | 444 kts | 9° |
| 2026-04-26 03:16 | 26.21692 | 119.54968 | 41048 ft | 452 kts | 18° |
| 2026-04-26 03:17 | 26.27254 | 119.58435 | 41054 ft | 462 kts | 24° |
| 2026-04-26 03:17 | 26.32678 | 119.62206 | 41052 ft | 463 kts | 25° |
| 2026-04-26 03:18 | 26.38115 | 119.66063 | 41049 ft | 463 kts | 25° |
| 2026-04-26 03:18 | 26.43560 | 119.69910 | 41049 ft | 463 kts | 25° |
| 2026-04-26 03:19 | 26.49017 | 119.73745 | 41063 ft | 463 kts | 25° |
| 2026-04-26 03:19 | 26.54467 | 119.77569 | 41048 ft | 462 kts | 25° |
| 2026-04-26 03:20 | 26.59910 | 119.81390 | 41042 ft | 462 kts | 25° |
| 2026-04-26 03:20 | 26.65363 | 119.85222 | 41038 ft | 464 kts | 25° |
| 2026-04-26 03:21 | 26.70839 | 119.89075 | 41048 ft | 466 kts | 25° |
| 2026-04-26 03:21 | 26.76326 | 119.92944 | 41045 ft | 466 kts | 26° |
| 2026-04-26 03:22 | 26.81805 | 119.96812 | 41042 ft | 465 kts | 26° |
| 2026-04-26 03:22 | 26.87280 | 120.00681 | 41037 ft | 465 kts | 25° |
| 2026-04-26 03:23 | 26.92750 | 120.04555 | 41054 ft | 465 kts | 26° |
| 2026-04-26 03:23 | 26.98188 | 120.08411 | 41040 ft | 465 kts | 26° |
| 2026-04-26 03:24 | 27.03660 | 120.12296 | 41040 ft | 466 kts | 26° |
| 2026-04-26 03:24 | 27.09142 | 120.16192 | 41036 ft | 467 kts | 26° |
| 2026-04-26 03:25 | 27.14643 | 120.20100 | 41038 ft | 468 kts | 26° |
| 2026-04-26 03:25 | 27.20154 | 120.23991 | 41031 ft | 467 kts | 26° |
| 2026-04-26 03:26 | 27.25656 | 120.27872 | 41030 ft | 467 kts | 26° |
| 2026-04-26 03:26 | 27.31154 | 120.31756 | 41037 ft | 467 kts | 26° |
| 2026-04-26 03:27 | 27.36651 | 120.35647 | 41034 ft | 467 kts | 26° |
| 2026-04-26 03:27 | 27.42145 | 120.39548 | 41032 ft | 466 kts | 26° |
| 2026-04-26 03:28 | 27.46700 | 120.42789 | 41035 ft | 467 kts | 26° |
| 2026-04-26 03:28 | 27.52205 | 120.46708 | 41034 ft | 468 kts | 26° |
| 2026-04-26 03:29 | 27.57715 | 120.50636 | 41031 ft | 469 kts | 26° |
| 2026-04-26 03:29 | 27.63230 | 120.54574 | 41035 ft | 469 kts | 26° |
| 2026-04-26 03:30 | 27.68734 | 120.58535 | 41030 ft | 471 kts | 29° |
| 2026-04-26 03:30 | 27.73552 | 120.63652 | 41033 ft | 484 kts | 49° |
| 2026-04-26 03:31 | 27.75344 | 120.66893 | 41031 ft | 491 kts | 60° |
| 2026-04-26 03:31 | 27.76584 | 120.70501 | 41033 ft | 496 kts | 69° |
| 2026-04-26 03:31 | 27.78353 | 120.78061 | 41034 ft | 500 kts | 73° |
| 2026-04-26 03:32 | 27.79887 | 120.85720 | 41033 ft | 500 kts | 74° |
| 2026-04-26 03:32 | 27.81426 | 120.93370 | 41031 ft | 499 kts | 74° |
| 2026-04-26 03:33 | 27.83005 | 121.01012 | 41032 ft | 500 kts | 74° |
| 2026-04-26 03:33 | 27.84604 | 121.08666 | 41035 ft | 501 kts | 74° |
| 2026-04-26 03:34 | 27.86202 | 121.16327 | 41034 ft | 501 kts | 74° |
| 2026-04-26 03:34 | 27.87784 | 121.23945 | 41032 ft | 501 kts | 74° |
| 2026-04-26 03:35 | 27.89378 | 121.31619 | 41031 ft | 502 kts | 74° |
| 2026-04-26 03:35 | 27.90974 | 121.39314 | 41037 ft | 503 kts | 74° |
| 2026-04-26 03:36 | 27.92563 | 121.47006 | 41034 ft | 502 kts | 74° |
| 2026-04-26 03:36 | 27.94145 | 121.54684 | 41038 ft | 502 kts | 74° |
| 2026-04-26 03:37 | 27.95727 | 121.62385 | 41038 ft | 503 kts | 74° |
| 2026-04-26 03:37 | 27.97307 | 121.70100 | 41038 ft | 504 kts | 75° |
| 2026-04-26 03:38 | 27.99295 | 121.77653 | 41035 ft | 498 kts | 61° |
| 2026-04-26 03:38 | 28.00974 | 121.81054 | 41040 ft | 491 kts | 50° |
| 2026-04-26 03:38 | 28.03133 | 121.84008 | 41059 ft | 484 kts | 39° |
| 2026-04-26 03:39 | 28.05668 | 121.86388 | 41038 ft | 476 kts | 28° |
| 2026-04-26 03:39 | 28.08497 | 121.88310 | 41034 ft | 472 kts | 23° |
| 2026-04-26 03:39 | 28.14315 | 121.91744 | 41033 ft | 471 kts | 20° |
| 2026-04-26 03:40 | 28.20193 | 121.95046 | 41032 ft | 471 kts | 20° |
| 2026-04-26 03:40 | 28.26058 | 121.98380 | 41054 ft | 472 kts | 21° |
| 2026-04-26 03:41 | 28.31908 | 122.01755 | 41034 ft | 471 kts | 21° |
| 2026-04-26 03:41 | 28.37739 | 122.05141 | 41034 ft | 471 kts | 21° |
| 2026-04-26 03:42 | 28.43568 | 122.08530 | 41032 ft | 471 kts | 21° |
| 2026-04-26 03:42 | 28.49416 | 122.11931 | 41037 ft | 473 kts | 21° |
| 2026-04-26 03:43 | 28.55270 | 122.15341 | 41030 ft | 472 kts | 21° |
| 2026-04-26 03:43 | 28.61116 | 122.18750 | 41034 ft | 472 kts | 21° |
| 2026-04-26 03:44 | 28.66969 | 122.22167 | 41032 ft | 472 kts | 21° |
| 2026-04-26 03:44 | 28.72810 | 122.25581 | 41033 ft | 472 kts | 21° |
| 2026-04-26 03:45 | 28.78646 | 122.28998 | 41022 ft | 471 kts | 21° |
| 2026-04-26 03:45 | 28.84477 | 122.32414 | 41035 ft | 471 kts | 21° |
| 2026-04-26 03:46 | 28.90306 | 122.35834 | 41042 ft | 471 kts | 21° |
| 2026-04-26 03:47 | 28.99072 | 122.40985 | 41032 ft | 472 kts | 21° |
| 2026-04-26 03:47 | 29.04876 | 122.44402 | 41031 ft | 472 kts | 21° |
| 2026-04-26 03:48 | 29.10725 | 122.47849 | 41034 ft | 472 kts | 21° |
| 2026-04-26 03:48 | 29.16658 | 122.50978 | 41034 ft | 464 kts | 12° |
| 2026-04-26 03:49 | 29.22899 | 122.52180 | 41033 ft | 449 kts | 354° |
| 2026-04-26 03:49 | 29.29016 | 122.51349 | 41035 ft | 441 kts | 344° |
| 2026-04-26 03:50 | 29.35034 | 122.49971 | 41047 ft | 441 kts | 342° |
| 2026-04-26 03:50 | 29.41032 | 122.48515 | 41033 ft | 440 kts | 343° |
| 2026-04-26 03:51 | 29.47032 | 122.47088 | 41034 ft | 440 kts | 343° |
| 2026-04-26 03:51 | 29.53040 | 122.45686 | 41034 ft | 441 kts | 343° |
| 2026-04-26 03:52 | 29.59048 | 122.44293 | 41028 ft | 441 kts | 343° |
| 2026-04-26 03:52 | 29.65056 | 122.42897 | 41028 ft | 440 kts | 343° |
| 2026-04-26 03:53 | 29.71065 | 122.41498 | 41027 ft | 440 kts | 343° |
| 2026-04-26 03:53 | 29.77072 | 122.40098 | 41026 ft | 441 kts | 343° |
| 2026-04-26 03:54 | 29.83080 | 122.38695 | 41026 ft | 441 kts | 343° |
| 2026-04-26 03:54 | 29.89090 | 122.37290 | 41032 ft | 441 kts | 343° |
| 2026-04-26 03:55 | 29.95230 | 122.36565 | 41026 ft | 448 kts | 355° |
| 2026-04-26 03:55 | 30.01483 | 122.36788 | 41026 ft | 450 kts | 357° |
| 2026-04-26 03:56 | 30.07746 | 122.37196 | 41025 ft | 451 kts | 358° |
| 2026-04-26 03:56 | 30.14019 | 122.37626 | 41031 ft | 451 kts | 358° |
| 2026-04-26 03:57 | 30.20275 | 122.38036 | 41026 ft | 450 kts | 358° |
| 2026-04-26 03:57 | 30.26488 | 122.38422 | 41029 ft | 449 kts | 357° |
| 2026-04-26 03:58 | 30.32735 | 122.38755 | 41028 ft | 449 kts | 357° |
| 2026-04-26 03:58 | 30.38982 | 122.39073 | 41029 ft | 449 kts | 357° |
| 2026-04-26 03:59 | 30.45225 | 122.39396 | 41027 ft | 449 kts | 357° |
| 2026-04-26 03:59 | 30.51471 | 122.39724 | 41030 ft | 449 kts | 357° |
| 2026-04-26 04:00 | 30.57703 | 122.40053 | 41032 ft | 449 kts | 357° |
| 2026-04-26 04:00 | 30.63945 | 122.40397 | 41037 ft | 449 kts | 358° |
| 2026-04-26 04:01 | 30.70185 | 122.40751 | 41036 ft | 449 kts | 358° |
| 2026-04-26 04:01 | 30.76424 | 122.41106 | 41034 ft | 449 kts | 358° |
| 2026-04-26 04:02 | 30.82661 | 122.41460 | 41051 ft | 449 kts | 358° |
| 2026-04-26 04:02 | 30.88901 | 122.41814 | 41034 ft | 449 kts | 358° |
| 2026-04-26 04:03 | 30.95132 | 122.42168 | 41033 ft | 448 kts | 358° |
| 2026-04-26 04:03 | 31.01368 | 122.42522 | 41034 ft | 448 kts | 358° |
| 2026-04-26 04:04 | 31.07564 | 122.42870 | 41031 ft | 448 kts | 358° |
| 2026-04-26 04:04 | 31.13795 | 122.43218 | 41036 ft | 448 kts | 358° |
| 2026-04-26 04:05 | 31.20023 | 122.43567 | 41031 ft | 448 kts | 358° |
| 2026-04-26 04:05 | 31.26255 | 122.43918 | 41027 ft | 448 kts | 358° |
| 2026-04-26 04:06 | 31.32481 | 122.44271 | 41036 ft | 448 kts | 358° |
| 2026-04-26 04:06 | 31.38707 | 122.44632 | 41033 ft | 448 kts | 358° |
| 2026-04-26 04:07 | 31.44881 | 122.44425 | 41037 ft | 439 kts | 345° |
| 2026-04-26 04:07 | 31.50694 | 122.42465 | 41036 ft | 433 kts | 336° |
| 2026-04-26 04:08 | 31.56329 | 122.39970 | 41035 ft | 433 kts | 334° |
| 2026-04-26 04:08 | 31.61936 | 122.37373 | 41033 ft | 433 kts | 334° |
| 2026-04-26 04:09 | 31.67547 | 122.34777 | 41033 ft | 433 kts | 334° |
| 2026-04-26 04:09 | 31.73160 | 122.32196 | 41032 ft | 432 kts | 335° |
| 2026-04-26 04:10 | 31.78725 | 122.29534 | 41034 ft | 431 kts | 333° |
| 2026-04-26 04:10 | 31.84229 | 122.26754 | 41035 ft | 431 kts | 334° |
| 2026-04-26 04:11 | 31.89819 | 122.24168 | 41031 ft | 432 kts | 335° |
| 2026-04-26 04:11 | 31.95407 | 122.21670 | 41032 ft | 432 kts | 335° |
| 2026-04-26 04:12 | 32.01023 | 122.19151 | 41032 ft | 432 kts | 335° |
| 2026-04-26 04:12 | 32.06639 | 122.16615 | 41028 ft | 432 kts | 335° |
| 2026-04-26 04:13 | 32.12247 | 122.14070 | 41028 ft | 432 kts | 335° |
| 2026-04-26 04:13 | 32.17857 | 122.11520 | 41029 ft | 432 kts | 335° |
| 2026-04-26 04:14 | 32.23465 | 122.08968 | 41028 ft | 432 kts | 335° |
| 2026-04-26 04:14 | 32.29072 | 122.06414 | 41032 ft | 432 kts | 335° |
| 2026-04-26 04:15 | 32.33724 | 122.04293 | 41050 ft | 431 kts | 335° |
| 2026-04-26 04:15 | 32.39307 | 122.01744 | 41032 ft | 430 kts | 335° |
| 2026-04-26 04:16 | 32.44881 | 121.99195 | 41030 ft | 429 kts | 335° |
| 2026-04-26 04:16 | 32.50458 | 121.96641 | 41033 ft | 430 kts | 335° |
| 2026-04-26 04:17 | 32.56034 | 121.94084 | 41033 ft | 430 kts | 335° |
| 2026-04-26 04:17 | 32.61609 | 121.91525 | 41029 ft | 430 kts | 335° |
| 2026-04-26 04:18 | 32.67184 | 121.88962 | 41027 ft | 429 kts | 335° |
| 2026-04-26 04:18 | 32.72751 | 121.86400 | 41027 ft | 429 kts | 335° |
| 2026-04-26 04:19 | 32.78323 | 121.83832 | 41026 ft | 429 kts | 335° |
| 2026-04-26 04:19 | 32.83891 | 121.81262 | 41026 ft | 429 kts | 335° |
| 2026-04-26 04:20 | 32.89459 | 121.78689 | 41027 ft | 429 kts | 335° |
| 2026-04-26 04:20 | 32.95006 | 121.76123 | 41026 ft | 427 kts | 335° |
| 2026-04-26 04:21 | 33.00544 | 121.73556 | 41026 ft | 427 kts | 335° |
| 2026-04-26 04:21 | 33.06077 | 121.70988 | 41026 ft | 427 kts | 335° |
| 2026-04-26 04:22 | 33.11612 | 121.68416 | 41026 ft | 427 kts | 334° |
| 2026-04-26 04:22 | 33.17148 | 121.65840 | 41026 ft | 427 kts | 334° |
| 2026-04-26 04:23 | 33.22641 | 121.63281 | 41026 ft | 426 kts | 334° |
| 2026-04-26 04:23 | 33.28142 | 121.60632 | 41025 ft | 426 kts | 333° |
| 2026-04-26 04:24 | 33.33580 | 121.57836 | 41024 ft | 425 kts | 333° |
| 2026-04-26 04:24 | 33.39008 | 121.55014 | 41044 ft | 425 kts | 333° |
| 2026-04-26 04:25 | 33.44444 | 121.52200 | 41017 ft | 425 kts | 333° |
| 2026-04-26 04:25 | 33.49876 | 121.49397 | 41020 ft | 424 kts | 333° |
| 2026-04-26 04:26 | 33.55296 | 121.46600 | 41020 ft | 424 kts | 333° |
| 2026-04-26 04:26 | 33.60714 | 121.43801 | 41020 ft | 424 kts | 333° |
| 2026-04-26 04:27 | 33.66129 | 121.40999 | 41033 ft | 424 kts | 333° |
| 2026-04-26 04:27 | 33.71598 | 121.38325 | 41018 ft | 425 kts | 334° |
| 2026-04-26 04:28 | 33.77108 | 121.35745 | 41018 ft | 425 kts | 334° |
| 2026-04-26 04:28 | 33.82613 | 121.33166 | 41018 ft | 425 kts | 334° |
| 2026-04-26 04:29 | 33.88120 | 121.30567 | 41018 ft | 425 kts | 334° |
| 2026-04-26 04:29 | 33.93621 | 121.27957 | 41018 ft | 425 kts | 334° |
| 2026-04-26 04:30 | 33.99118 | 121.25345 | 41014 ft | 425 kts | 334° |
| 2026-04-26 04:30 | 34.04618 | 121.22727 | 41016 ft | 425 kts | 334° |
| 2026-04-26 04:31 | 34.08469 | 121.20893 | 41013 ft | 424 kts | 334° |
| 2026-04-26 04:31 | 34.13956 | 121.18277 | 41010 ft | 424 kts | 334° |
| 2026-04-26 04:32 | 34.19442 | 121.15657 | 41013 ft | 424 kts | 334° |
| 2026-04-26 04:32 | 34.24934 | 121.13030 | 41014 ft | 424 kts | 334° |
| 2026-04-26 04:33 | 34.30421 | 121.10403 | 41014 ft | 424 kts | 334° |
| 2026-04-26 04:33 | 34.35907 | 121.07772 | 41011 ft | 424 kts | 334° |
| 2026-04-26 04:34 | 34.41391 | 121.05138 | 41006 ft | 424 kts | 334° |
| 2026-04-26 04:34 | 34.46878 | 121.02499 | 41012 ft | 424 kts | 333° |
| 2026-04-26 04:35 | 34.52352 | 120.99863 | 41005 ft | 423 kts | 333° |
| 2026-04-26 04:35 | 34.57827 | 120.97223 | 41004 ft | 423 kts | 333° |
| 2026-04-26 04:36 | 34.63299 | 120.94579 | 41002 ft | 423 kts | 333° |
| 2026-04-26 04:36 | 34.68769 | 120.91934 | 41007 ft | 423 kts | 333° |
| 2026-04-26 04:37 | 34.74232 | 120.89288 | 41004 ft | 422 kts | 333° |
| 2026-04-26 04:37 | 34.79692 | 120.86640 | 41005 ft | 422 kts | 333° |
| 2026-04-26 04:38 | 34.85151 | 120.83988 | 40993 ft | 422 kts | 333° |
| 2026-04-26 04:38 | 34.90590 | 120.81340 | 40739 ft | 428 kts | 333° |
| 2026-04-26 04:38 | 34.93360 | 120.79989 | 40143 ft | 431 kts | 333° |
| 2026-04-26 04:39 | 34.96157 | 120.78624 | 39520 ft | 434 kts | 333° |
| 2026-04-26 04:39 | 34.98962 | 120.77257 | 38926 ft | 433 kts | 333° |
| 2026-04-26 04:39 | 35.01748 | 120.75901 | 37970 ft | 429 kts | 333° |
| 2026-04-26 04:39 | 35.04516 | 120.74552 | 36973 ft | 427 kts | 333° |
| 2026-04-26 04:40 | 35.07259 | 120.73215 | 36446 ft | 423 kts | 333° |
| 2026-04-26 04:40 | 35.09981 | 120.71885 | 35911 ft | 421 kts | 333° |
| 2026-04-26 04:40 | 35.12697 | 120.70556 | 35334 ft | 421 kts | 333° |
| 2026-04-26 04:40 | 35.15414 | 120.69226 | 34720 ft | 421 kts | 333° |
| 2026-04-26 04:41 | 35.18149 | 120.67894 | 33989 ft | 425 kts | 334° |
| 2026-04-26 04:41 | 35.20907 | 120.66554 | 33216 ft | 428 kts | 334° |
| 2026-04-26 04:41 | 35.23679 | 120.65208 | 32483 ft | 430 kts | 334° |
| 2026-04-26 04:41 | 35.26468 | 120.63853 | 31763 ft | 431 kts | 334° |
| 2026-04-26 04:42 | 35.29245 | 120.62504 | 31266 ft | 428 kts | 334° |
| 2026-04-26 04:42 | 35.32001 | 120.61166 | 30762 ft | 424 kts | 334° |
| 2026-04-26 04:42 | 35.34732 | 120.59837 | 30240 ft | 422 kts | 334° |
| 2026-04-26 04:42 | 35.37455 | 120.58512 | 29664 ft | 419 kts | 334° |
| 2026-04-26 04:43 | 35.40156 | 120.57205 | 29109 ft | 415 kts | 334° |
| 2026-04-26 04:43 | 35.42830 | 120.55915 | 28582 ft | 412 kts | 334° |
| 2026-04-26 04:43 | 35.45487 | 120.54632 | 28053 ft | 408 kts | 334° |
| 2026-04-26 04:43 | 35.48114 | 120.53359 | 27532 ft | 405 kts | 334° |
| 2026-04-26 04:44 | 35.50727 | 120.52091 | 27015 ft | 402 kts | 334° |
| 2026-04-26 04:44 | 35.53325 | 120.50828 | 26485 ft | 399 kts | 334° |
| 2026-04-26 04:44 | 35.55904 | 120.49573 | 25946 ft | 397 kts | 334° |
| 2026-04-26 04:44 | 35.58466 | 120.48327 | 25433 ft | 395 kts | 334° |
| 2026-04-26 04:45 | 35.61018 | 120.47084 | 24906 ft | 393 kts | 334° |
| 2026-04-26 04:45 | 35.63550 | 120.45850 | 24392 ft | 391 kts | 334° |
| 2026-04-26 04:45 | 35.66075 | 120.44619 | 23865 ft | 390 kts | 334° |
| 2026-04-26 04:45 | 35.68585 | 120.43395 | 23318 ft | 387 kts | 334° |
| 2026-04-26 04:46 | 35.71083 | 120.42175 | 22788 ft | 384 kts | 334° |
| 2026-04-26 04:46 | 35.73550 | 120.40971 | 22265 ft | 380 kts | 334° |
| 2026-04-26 04:46 | 35.75997 | 120.39775 | 21750 ft | 376 kts | 335° |
| 2026-04-26 04:46 | 35.78418 | 120.38591 | 21259 ft | 372 kts | 335° |
| 2026-04-26 04:47 | 35.80785 | 120.37432 | 20763 ft | 370 kts | 335° |
| 2026-04-26 04:47 | 35.83169 | 120.36264 | 20267 ft | 367 kts | 335° |
| 2026-04-26 04:47 | 35.85536 | 120.35104 | 19776 ft | 365 kts | 335° |
| 2026-04-26 04:47 | 35.87889 | 120.33949 | 19274 ft | 363 kts | 335° |
| 2026-04-26 04:48 | 35.92549 | 120.31662 | 18320 ft | 359 kts | 336° |
| 2026-04-26 04:48 | 35.94860 | 120.30526 | 17787 ft | 356 kts | 336° |
| 2026-04-26 04:48 | 35.97173 | 120.29464 | 17281 ft | 353 kts | 341° |
| 2026-04-26 04:49 | 35.99587 | 120.28887 | 16778 ft | 354 kts | 350° |
| 2026-04-26 04:49 | 36.02031 | 120.28565 | 16292 ft | 352 kts | 352° |
| 2026-04-26 04:49 | 36.04460 | 120.28290 | 15794 ft | 350 kts | 352° |
| 2026-04-26 04:49 | 36.06880 | 120.28016 | 15298 ft | 348 kts | 352° |
| 2026-04-26 04:50 | 36.09290 | 120.27739 | 14805 ft | 347 kts | 352° |
| 2026-04-26 04:50 | 36.11681 | 120.27461 | 14330 ft | 345 kts | 352° |
| 2026-04-26 04:50 | 36.14068 | 120.27181 | 13853 ft | 343 kts | 352° |
| 2026-04-26 04:50 | 36.16440 | 120.26902 | 13327 ft | 341 kts | 352° |
| 2026-04-26 04:51 | 36.18795 | 120.26624 | 12845 ft | 339 kts | 352° |
| 2026-04-26 04:51 | 36.21125 | 120.26349 | 12387 ft | 336 kts | 353° |
| 2026-04-26 04:51 | 36.23447 | 120.26075 | 11913 ft | 333 kts | 353° |
| 2026-04-26 04:51 | 36.25744 | 120.25800 | 11449 ft | 331 kts | 353° |
| 2026-04-26 04:52 | 36.28027 | 120.25511 | 10963 ft | 328 kts | 350° |
| 2026-04-26 04:52 | 36.30222 | 120.24892 | 10724 ft | 317 kts | 342° |
| 2026-04-26 04:52 | 36.32279 | 120.24118 | 10641 ft | 300 kts | 340° |
| 2026-04-26 04:52 | 36.34194 | 120.23369 | 10556 ft | 286 kts | 340° |
| 2026-04-26 04:53 | 36.36050 | 120.22640 | 10463 ft | 275 kts | 341° |
| 2026-04-26 04:53 | 36.37865 | 120.21927 | 10146 ft | 274 kts | 340° |
| 2026-04-26 04:53 | 36.39690 | 120.21207 | 9771 ft | 276 kts | 340° |
| 2026-04-26 04:53 | 36.41517 | 120.20488 | 9398 ft | 275 kts | 340° |
| 2026-04-26 04:54 | 36.43342 | 120.19776 | 9044 ft | 274 kts | 340° |
| 2026-04-26 04:54 | 36.45160 | 120.19064 | 8695 ft | 274 kts | 340° |
| 2026-04-26 04:54 | 36.46975 | 120.18353 | 8348 ft | 273 kts | 339° |
| 2026-04-26 04:54 | 36.48791 | 120.17643 | 7995 ft | 274 kts | 339° |
| 2026-04-26 04:55 | 36.50609 | 120.16930 | 7640 ft | 275 kts | 339° |
| 2026-04-26 04:55 | 36.52438 | 120.16211 | 7337 ft | 273 kts | 339° |
| 2026-04-26 04:55 | 36.54210 | 120.15516 | 7256 ft | 261 kts | 339° |
| 2026-04-26 04:55 | 36.55911 | 120.14850 | 7168 ft | 252 kts | 339° |
| 2026-04-26 04:56 | 36.57557 | 120.14206 | 7054 ft | 243 kts | 339° |
| 2026-04-26 04:56 | 36.59137 | 120.13586 | 6968 ft | 233 kts | 339° |
| 2026-04-26 04:56 | 36.60660 | 120.12988 | 6714 ft | 229 kts | 339° |
| 2026-04-26 04:56 | 36.62184 | 120.12384 | 6401 ft | 230 kts | 338° |
| 2026-04-26 04:57 | 36.63708 | 120.11774 | 6090 ft | 229 kts | 338° |
| 2026-04-26 04:57 | 36.65136 | 120.10954 | 5805 ft | 225 kts | 321° |
| 2026-04-26 04:57 | 36.66062 | 120.09459 | 5529 ft | 219 kts | 290° |
| 2026-04-26 04:57 | 36.66287 | 120.07612 | 5243 ft | 215 kts | 272° |
| 2026-04-26 04:58 | 36.66265 | 120.05758 | 4984 ft | 214 kts | 269° |
| 2026-04-26 04:58 | 36.66208 | 120.03906 | 4693 ft | 212 kts | 268° |
| 2026-04-26 04:58 | 36.66158 | 120.02085 | 4423 ft | 210 kts | 268° |
| 2026-04-26 04:58 | 36.66110 | 120.00275 | 4176 ft | 208 kts | 268° |
| 2026-04-26 04:59 | 36.65916 | 119.98544 | 3899 ft | 207 kts | 247° |
| 2026-04-26 04:59 | 36.64925 | 119.97286 | 3628 ft | 208 kts | 205° |
| 2026-04-26 04:59 | 36.63495 | 119.97041 | 3350 ft | 211 kts | 179° |
| 2026-04-26 04:59 | 36.62044 | 119.97342 | 3073 ft | 212 kts | 167° |
| 2026-04-26 05:00 | 36.60645 | 119.97872 | 2999 ft | 205 kts | 165° |
| 2026-04-26 05:00 | 36.59331 | 119.98402 | 2993 ft | 194 kts | 165° |
| 2026-04-26 05:00 | 36.58049 | 119.98914 | 3015 ft | 192 kts | 165° |
| 2026-04-26 05:00 | 36.56779 | 119.99417 | 3005 ft | 193 kts | 165° |
| 2026-04-26 05:01 | 36.55499 | 119.99916 | 3007 ft | 193 kts | 165° |
| 2026-04-26 05:01 | 36.54218 | 120.00418 | 3005 ft | 193 kts | 165° |
| 2026-04-26 05:01 | 36.52964 | 120.00913 | 2983 ft | 185 kts | 166° |
| 2026-04-26 05:01 | 36.51741 | 120.01395 | 2992 ft | 184 kts | 166° |
| 2026-04-26 05:02 | 36.50541 | 120.01865 | 2829 ft | 180 kts | 165° |
| 2026-04-26 05:02 | 36.49752 | 120.02177 | 2665 ft | 180 kts | 164° |
| 2026-04-26 05:02 | 36.48569 | 120.02647 | 2394 ft | 176 kts | 165° |
| 2026-04-26 05:02 | 36.47442 | 120.03093 | 2169 ft | 163 kts | 164° |
| 2026-04-26 05:03 | 36.46395 | 120.03503 | 1960 ft | 153 kts | 164° |
| 2026-04-26 05:03 | 36.45412 | 120.03892 | 1756 ft | 143 kts | 165° |
| 2026-04-26 05:03 | 36.44493 | 120.04255 | 1562 ft | 135 kts | 166° |
| 2026-04-26 05:03 | 36.43630 | 120.04587 | 1356 ft | 126 kts | 165° |
| 2026-04-26 05:04 | 36.42823 | 120.04926 | 1206 ft | 121 kts | 167° |
| 2026-04-26 05:04 | 36.42025 | 120.05261 | 1005 ft | 120 kts | 165° |
| 2026-04-26 05:04 | 36.41216 | 120.05531 | 889 ft | 121 kts | 166° |
| 2026-04-26 05:04 | 36.40410 | 120.05850 | 760 ft | 122 kts | 160° |
| 2026-04-26 05:05 | 36.39609 | 120.06187 | 586 ft | 122 kts | 162° |
| 2026-04-26 05:05 | 36.38793 | 120.06496 | 465 ft | 125 kts | 161° |
| 2026-04-26 05:05 | 36.37964 | 120.06830 | 283 ft | 124 kts | 162° |
| 2026-04-26 05:05 | 36.37160 | 120.07145 | 101 ft | 117 kts | 161° |
| 2026-04-26 05:06 | 36.36419 | 120.07440 | 43 ft | 95 kts | 162° |
| 2026-04-26 05:06 | 36.35964 | 120.07616 | 39 ft | 53 kts | 162° |
| 2026-04-26 05:06 | 36.35641 | 120.07761 | 40 ft | 35 kts | 148° |
| 2026-04-26 05:06 | 36.35510 | 120.07907 | 40 ft | 16 kts | 125° |
| 2026-04-26 05:07 | 36.35515 | 120.08010 | 40 ft | 13 kts | 73° |
| 2026-04-26 05:07 | 36.35547 | 120.08121 | 38 ft | 14 kts | 60° |
| 2026-04-26 05:07 | 36.35636 | 120.08148 | 39 ft | 15 kts | 345° |
| 2026-04-26 05:07 | 36.35745 | 120.08107 | 40 ft | 18 kts | 343° |
| 2026-04-26 05:08 | 36.35869 | 120.08058 | 40 ft | 20 kts | 340° |
| 2026-04-26 05:08 | 36.36006 | 120.08002 | 40 ft | 20 kts | 342° |
| 2026-04-26 05:08 | 36.36113 | 120.07961 | 40 ft | 13 kts | 342° |
| 2026-04-26 05:08 | 36.36190 | 120.07932 | 40 ft | 10 kts | 347° |
| 2026-04-26 05:09 | 36.36242 | 120.07971 | 40 ft | 10 kts | 66° |
| 2026-04-26 05:09 | 36.36253 | 120.08015 | 40 ft | 3 kts | 74° |
| 2026-04-26 05:09 | 36.36254 | 120.08021 | 40 ft | 0 kts | 74° |